Saturday, July 21, 2018, 9:01 PM EDT
Back to Local

KTAN, Taunton Municipal Airport

Location: East Taunton, MA, United States Lat: 41.883
Local Time: 9:01 PM EDT ( 1:01 GMT) Lon: -71.017
Time Zone: US/Eastern Elev: 42 ft

Show me the last for .
Show Decoded

2018-07-21 19:52 METAR KTAN 212352Z AUTO 07006KT 10SM SCT023 BKN060 21/16 A3011 RMK AO2 SLP195
                 T02110156 10267 20211 51005 =
2018-07-21 18:52 METAR KTAN 212252Z AUTO VRB05KT 10SM FEW025 22/16 A3011 RMK AO2 SLP196 T02220156
                 =
2018-07-21 17:52 METAR KTAN 212152Z AUTO 08007KT 10SM CLR 23/16 A3010 RMK AO2 SLP193 T02280156 =
2018-07-21 16:52 METAR KTAN 212052Z AUTO 08009KT 10SM FEW033 24/16 A3010 RMK AO2 SLP191 T02440156
                 55010 =
2018-07-21 15:52 METAR KTAN 211952Z AUTO 09006KT 10SM FEW040 26/15 A3009 RMK AO2 SLP190 T02610150
                 =
2018-07-21 14:52 METAR KTAN 211852Z AUTO VRB06KT 10SM CLR 27/14 A3011 RMK AO2 SLP196 T02670144 =
2018-07-21 13:52 METAR KTAN 211752Z AUTO 07006KT 10SM FEW044 26/13 A3013 RMK AO2 SLP201 T02610128
                 10267 20183 58011 =
2018-07-21 12:52 METAR KTAN 211652Z AUTO 10SM BKN041 26/14 A3015 RMK AO2 SLP207 T02610139 =
2018-07-21 11:52 METAR KTAN 211552Z AUTO 13009G15KT 10SM SCT038 26/14 A3015 RMK AO2 SLP209
                 T02560139 $ =
2018-07-21 10:52 METAR KTAN 211452Z AUTO 12008KT 10SM BKN038 25/14 A3016 RMK AO2 SLP211 T02500144
                 58001 $ =
2018-07-21 09:52 METAR KTAN 211352Z AUTO 08007KT 10SM CLR 23/14 A3016 RMK AO2 SLP212 T02330139 $
                 =
2018-07-21 08:52 METAR KTAN 211252Z AUTO 08005KT 10SM CLR 22/13 A3016 RMK AO2 SLP213 T02220133 $
                 =
2018-07-21 07:52 METAR KTAN 211152Z AUTO 00000KT 10SM CLR 18/14 A3016 RMK AO2 SLP213 T01830139
                 10183 20083 53002 $ =
2018-07-21 06:52 METAR KTAN 211052Z AUTO 00000KT 10SM CLR 13/12 A3016 RMK AO2 SLP211 T01330122 $
                 =
2018-07-21 06:12 METAR KTAN 211012Z AUTO 00000KT 4SM BR CLR 10/09 A3015 RMK AO2 T01000094 $ =
2018-07-21 06:08 METAR KTAN 211008Z AUTO 00000KT 1SM BR CLR 09/09 A3015 RMK AO2 T00940089 $ =
2018-07-21 06:01 METAR KTAN 211001Z AUTO 00000KT 1/2SM FG VV001 09/08 A3015 RMK AO2 T00890083 $ =
2018-07-21 05:52 METAR KTAN 210952Z AUTO 00000KT 1SM BR VV001 09/08 A3015 RMK AO2 SLP211
                 T00890083 $ =
2018-07-21 05:39 METAR KTAN 210939Z AUTO 00000KT 1/4SM FG VV001 09/08 A3015 RMK AO2 T00890078 $ =
2018-07-21 05:30 METAR KTAN 210930Z AUTO 00000KT 3/4SM BR 09/08 A3015 RMK AO2 T00890078 $ =
2018-07-21 05:23 METAR KTAN 210923Z AUTO 00000KT 1SM BR 09/08 A3015 RMK AO2 T00890078 $ =
2018-07-21 05:00 METAR KTAN 210900Z AUTO 00000KT 1/2SM FG 09/08 A3016 RMK AO2 VIS M1/4V5
                 T00890078 $ =
2018-07-21 04:58 METAR KTAN 210858Z AUTO 00000KT 2SM BR SCT001 09/08 A3016 RMK AO2 VIS 1/4V5
                 T00890078 $ =
2018-07-21 04:52 METAR KTAN 210852Z AUTO 00000KT 4SM BR BKN001 09/08 A3016 RMK AO2 SLP212
                 T00890078 53001 =
2018-07-21 04:42 METAR KTAN 210842Z AUTO 00000KT 4SM BR BKN001 08/08 A3015 RMK AO2 T00830078 =
2018-07-21 04:34 METAR KTAN 210834Z AUTO 00000KT 2SM BR BKN001 09/08 A3015 RMK AO2 T00890083 =
2018-07-21 04:24 METAR KTAN 210824Z AUTO 00000KT 1 3/4SM BR FEW001 09/08 A3015 RMK AO2 VIS 1V4
                 T00890078 =
2018-07-21 04:16 METAR KTAN 210816Z AUTO 00000KT 1 1/2SM BR CLR 09/08 A3015 RMK AO2 T00890083 =
2018-07-21 03:52 METAR KTAN 210752Z AUTO 00000KT 1/2SM FG CLR 09/09 A3016 RMK AO2 SLP211
                 T00940089 =
2018-07-21 03:37 METAR KTAN 210737Z AUTO 00000KT 1/4SM FG CLR 09/08 A3016 RMK AO2 T00940083 =
2018-07-21 03:16 METAR KTAN 210716Z AUTO 00000KT 1SM BR CLR 09/09 A3015 RMK AO2 T00940089 =
2018-07-21 02:52 METAR KTAN 210652Z AUTO 00000KT 1/2SM FG VV001 10/09 A3015 RMK AO2 SLP209
                 T01000089 =
2018-07-21 02:48 METAR KTAN 210648Z AUTO 00000KT 1/2SM FG VV001 10/09 A3015 RMK AO2 =
2018-07-21 02:27 METAR KTAN 210627Z AUTO 00000KT 3/4SM BR CLR 10/09 A3015 RMK AO2 T01000094 =
2018-07-21 02:20 METAR KTAN 210620Z AUTO 00000KT 1 1/2SM BR CLR 10/09 A3015 RMK AO2 VIS 3/4V4
                 T01000094 =
2018-07-21 01:55 METAR KTAN 210555Z AUTO 00000KT 3/4SM BR CLR 11/10 A3016 RMK AO2 T01060100 =
2018-07-21 01:52 METAR KTAN 210552Z AUTO 00000KT 1 3/4SM BR CLR 11/10 A3016 RMK AO2 SLP211
                 T01060100 10222 20106 56004 =
2018-07-21 01:46 METAR KTAN 210546Z AUTO 00000KT 3SM BR CLR 11/10 A3016 RMK AO2 =
2018-07-21 01:27 METAR KTAN 210527Z AUTO 00000KT 1 1/2SM BR CLR 11/11 A3016 RMK AO2 VIS 3/4V4
                 T01110106 =
2018-07-21 00:52 METAR KTAN 210452Z AUTO 00000KT 1/2SM FG CLR 12/11 A3016 RMK AO2 SLP211
                 T01220111 403060111 =
2018-07-21 00:33 METAR KTAN 210433Z AUTO 00000KT 1/2SM FG CLR 12/11 A3016 RMK AO2 T01170111 =
2018-07-21 00:23 METAR KTAN 210423Z AUTO 00000KT 1/2SM FG VV003 12/12 A3016 RMK AO2 T01220117 =
2018-07-21 00:15 METAR KTAN 210415Z AUTO 00000KT 3/4SM BR CLR 12/11 A3016 RMK AO2 T01220111 =
2018-07-21 00:09 METAR KTAN 210409Z AUTO 00000KT 1 3/4SM BR CLR 12/12 A3016 RMK AO2 T01220117 =
2018-07-20 23:55 METAR KTAN 210355Z AUTO 00000KT 3SM BR CLR 13/12 A3016 RMK AO2 T01280117 =
2018-07-20 23:52 METAR KTAN 210352Z AUTO 00000KT 1 3/4SM BR CLR 13/12 A3016 RMK AO2 SLP212
                 T01280117 =
2018-07-20 23:49 METAR KTAN 210349Z AUTO 00000KT 1 3/4SM BR CLR 13/12 A3016 RMK AO2 =
2018-07-20 22:52 METAR KTAN 210252Z AUTO 00000KT 10SM CLR 14/13 A3017 RMK AO2 SLP215 T01440133
                 51006 =
2018-07-20 21:52 METAR KTAN 210152Z AUTO 00000KT 10SM CLR 15/13 A3017 RMK AO2 SLP214 T01500133 =

Support USWX by starting your Amazon purchase here.